Flight Track Log - Related Links

Times and Time Zones

All times are in EDT time to prevent confusion due to time zone crossing. See the N600TR flight status page for this flight to view local times or setup timezone preferences in your user account.

Time Position Orientation Groundspeed Altitude Reporting Facility
EDT Latitude Longitude Course Direction KTS MPH feet Rate Location/Type
Mon 12:48:28 PM 39.8333 -75.3833 247° West 231 266 3,100  Level Philadelphia TRACON
Mon 12:49:22 PM 39.8500 -75.4500 288° West 248 285 5,000 2,085 Climbing Philadelphia TRACON
Mon 12:50:00 PM 39.9080 -75.7189 258° West  Level FlightAware Approximate
Mon 12:51:00 PM 39.9001 -75.8434 270° West  Level FlightAware Approximate
Mon 12:51:12 PM 39.8994 -75.6144 291° West 272 313 8,800  Level New York Center
Mon 12:52:00 PM 39.9000 -75.9691 270° West  Level FlightAware Approximate
Mon 12:52:12 PM 39.9103 -75.7017 279° West 272 313 10,400  Level New York Center
Mon 12:53:12 PM 39.9133 -75.8264 272° West 306 352 11,100 1,350 Climbing New York Center
Mon 12:54:12 PM 39.9142 -75.9539 271° West 337 388 13,100 1,950 Climbing New York Center
Mon 12:55:12 PM 39.9086 -76.0806 267° West 355 409 15,000 2,050 Climbing New York Center
Mon 12:56:12 PM 39.9358 -76.2100 285° West 369 425 17,200 1,700 Climbing New York Center
Mon 12:57:12 PM 39.9572 -76.3336 283° West 381 438 18,400 1,750 Climbing New York Center
Mon 12:58:12 PM 39.9758 -76.4706 280° West 381 438 20,700 1,900 Climbing New York Center
Mon 12:59:12 PM 39.9947 -76.5967 281° West 376 433 22,200 1,400 Climbing New York Center
Mon 01:00:12 PM 40.0047 -76.7303 276° West 371 427 23,500 1,200 Climbing New York Center
Mon 01:01:12 PM 40.0189 -76.8617 278° West 371 427 24,600 950 Climbing New York Center
Mon 01:02:12 PM 40.0328 -76.9931 278° West 371 427 25,400 900 Climbing New York Center
Mon 01:03:12 PM 40.0464 -77.1300 277° West 371 427 26,400 900 Climbing New York Center
Mon 01:04:12 PM 40.0533 -77.2689 274° West 377 434 27,200 774 Climbing New York Center
Mon 01:06:18 PM 40.0669 -77.5744 273° West 383 441 28,800 774 Climbing Cleveland Center
Mon 01:07:18 PM 40.0728 -77.7181 273° West 393 452 29,600 750 Climbing Cleveland Center
Mon 01:08:18 PM 40.0806 -77.8586 274° West 398 458 30,300 800 Climbing Cleveland Center
Mon 01:09:18 PM 40.0839 -78.0053 272° West 398 458 31,200 850 Climbing Cleveland Center
Mon 01:10:18 PM 40.0889 -78.1433 273° West 398 458 32,000 400 Climbing Cleveland Center
Mon 01:11:18 PM 40.0731 -78.2797 261° West 393 452 32,000  Level Cleveland Center
Mon 01:12:18 PM 40.0486 -78.4106 256° West 388 447 32,000  Level Cleveland Center
Mon 01:13:18 PM 40.0281 -78.5442 259° West 383 441 32,000  Level Cleveland Center
Mon 01:14:18 PM 40.0178 -78.6800 264° West 383 441 32,000  Level Cleveland Center
Mon 01:15:18 PM 40.0097 -78.8186 266° West 378 435 32,000  Level Cleveland Center
Mon 01:16:18 PM 39.9992 -78.9544 264° West 378 435 32,000  Level Cleveland Center
Mon 01:17:18 PM 39.9864 -79.0875 263° West 383 441 32,000  Level Cleveland Center
Mon 01:18:18 PM 39.9778 -79.2258 265° West 388 447 32,000  Level Cleveland Center
Mon 01:19:18 PM 39.9711 -79.3667 267° West 388 447 32,000  Level Cleveland Center
Mon 01:20:18 PM 39.9808 -79.5103 275° West 388 447 32,000  Level Cleveland Center
Mon 01:21:18 PM 40.0467 -79.6367 304° West 394 453 32,000  Level Cleveland Center
Mon 01:22:18 PM 40.1142 -79.7606 305° West 405 466 32,000 -350 Level Cleveland Center
Mon 01:23:18 PM 40.1858 -79.8875 306° West 428 493 31,300 -600 Descending Cleveland Center
Mon 01:24:18 PM 40.2594 -79.9981 311° West 446 513 30,800 -550 Descending Cleveland Center
Mon 01:25:18 PM 40.3372 -80.1200 310° West 451 519 30,200 -400 Descending Cleveland Center
Mon 01:26:18 PM 40.4169 -80.2450 310° West 446 513 30,000 -100 Descending Cleveland Center
Mon 01:27:18 PM 40.4942 -80.3647 310° West 446 513 30,000  Level Cleveland Center
Mon 01:28:18 PM 40.5675 -80.4928 307° West 440 506 30,000  Level Cleveland Center
Mon 01:29:18 PM 40.6300 -80.6214 303° West 435 501 30,000  Level Cleveland Center
Mon 01:30:18 PM 40.7028 -80.7667 303° West 430 495 30,000  Level Cleveland Center
Mon 01:31:18 PM 40.7714 -80.8956 305° West 430 495 30,000  Level Cleveland Center
Mon 01:32:18 PM 40.8417 -81.0250 306° West 430 495 30,000  Level Cleveland Center
Mon 01:33:18 PM 40.9078 -81.1544 304° West 425 489 30,000  Level Cleveland Center
Mon 01:34:18 PM 40.9739 -81.2844 304° West 425 489 30,000  Level Cleveland Center
Mon 01:35:18 PM 41.0439 -81.4144 306° West 425 489 30,000  Level Cleveland Center
Mon 01:36:18 PM 41.1033 -81.5503 300° West 425 489 30,000  Level Cleveland Center
Mon 01:37:18 PM 41.1542 -81.6725 299° West 425 489 30,000  Level Cleveland Center
Mon 01:38:18 PM 41.2153 -81.8142 300° West 437 503 30,000 -350 Level Cleveland Center
Mon 01:39:18 PM 41.2764 -81.9564 300° West 437 503 29,300 -1,350 Descending Cleveland Center
Mon 01:40:18 PM 41.3389 -82.1236 297° West 444 511 27,300 -1,900 Descending Cleveland Center
Mon 01:41:18 PM 41.4014 -82.2689 300° West 449 517 25,500 -2,350 Descending Cleveland Center
Mon 01:42:18 PM 41.4786 -82.4042 307° West 463 533 22,600 -3,250 Descending Cleveland Center
Mon 01:43:18 PM 41.5619 -82.5258 312° West 444 511 19,000 -3,400 Descending Cleveland Center
Mon 01:44:18 PM 41.6350 -82.6419 310° West 438 504 15,800 -3,300 Descending Cleveland Center
Mon 01:45:18 PM 41.7000 -82.7383 312° West 413 475 12,400 -1,900 Descending Cleveland Center
Mon 01:46:18 PM 41.7689 -82.8356 314° West 384 442 12,000 -200 Descending Cleveland Center
Mon 01:47:18 PM 41.8422 -82.9272 317° Northwest 366 421 12,000  Level Cleveland Center
Mon 01:48:28 PM 41.9314 -83.0478 315° West 354 407 12,000  Level Cleveland Center
Mon 01:49:18 PM 41.9822 -83.1083 318° Northwest 353 406 12,000  Level Cleveland Center
Mon 01:50:18 PM 42.0492 -83.1864 319° Northwest 336 387 12,000 -350 Level Cleveland Center
Mon 01:51:18 PM 42.1108 -83.2283 333° Northwest 272 313 11,300 -1,100 Descending Cleveland Center
Mon 01:52:18 PM 42.1775 -83.2256 North 246 283 9,800 -1,431 Descending Cleveland Center
Mon 01:53:28 PM 42.2539 -83.1669 30° Northeast 238 274 8,200 -1,420 Descending Cleveland Center
Mon 01:54:29 PM 42.3114 -83.1158 33° Northeast 235 270 6,700 -1,377 Descending Cleveland Center
Mon 01:55:30 PM 42.3675 -83.1236 354° North 226 260 5,400 -1,122 Descending Cleveland Center
Mon 01:56:32 PM 42.3636 -83.2022 266° West 218 251 4,400 -1,220 Descending Cleveland Center
Mon 01:57:33 PM 42.3206 -83.2594 225° Southwest 207 238 2,900 -1,230 Descending Cleveland Center
Mon 01:58:34 PM 42.2761 -83.2914 208° Southwest 169 194 1,900 -836 Descending Cleveland Center
Mon 01:59:35 PM 42.2419 -83.3206 212° Southwest 141 162 1,200 -689 Descending Cleveland Center

Login

Don't have an account? Register now (free) for customized features, flight alerts, and more!